createdAt,value
2023-06-30T00:03:26.490Z,15.41
2023-06-30T00:08:29.296Z,15.34
2023-06-30T00:13:31.912Z,15.30
2023-06-30T00:18:34.518Z,15.25
2023-06-30T00:23:37.178Z,15.17
2023-06-30T00:28:39.840Z,15.05
2023-06-30T00:33:42.563Z,14.94
2023-06-30T00:38:46.001Z,14.88
2023-06-30T00:43:48.680Z,14.81
2023-06-30T00:48:51.281Z,14.75
2023-06-30T00:53:53.954Z,14.73
2023-06-30T00:58:58.362Z,14.75
2023-06-30T01:04:17.786Z,14.75
2023-06-30T01:09:24.950Z,14.72
2023-06-30T01:14:30.501Z,14.67
2023-06-30T01:19:46.001Z,14.62
2023-06-30T01:24:52.089Z,14.59
2023-06-30T01:29:55.356Z,14.55
2023-06-30T01:34:57.986Z,14.50
2023-06-30T01:40:01.562Z,14.42
2023-06-30T01:45:05.964Z,14.37
2023-06-30T01:50:09.145Z,14.33
2023-06-30T01:55:11.746Z,14.28
2023-06-30T02:00:15.216Z,14.25
2023-06-30T02:05:17.852Z,14.19
2023-06-30T02:10:20.497Z,14.14
2023-06-30T02:15:23.160Z,14.12
2023-06-30T02:20:26.001Z,14.13
2023-06-30T02:25:28.634Z,14.15
2023-06-30T02:30:31.314Z,14.15
2023-06-30T02:35:33.977Z,14.12
2023-06-30T02:40:37.726Z,14.11
2023-06-30T02:45:40.569Z,14.16
2023-06-30T02:50:44.854Z,14.19
2023-06-30T02:55:47.817Z,14.24
2023-06-30T03:00:50.895Z,14.38
2023-06-30T03:05:53.627Z,14.53
2023-06-30T03:10:56.258Z,14.68
2023-06-30T03:15:58.920Z,14.84
2023-06-30T03:21:01.482Z,15.02
2023-06-30T03:26:04.033Z,15.22
2023-06-30T03:31:06.674Z,15.35
2023-06-30T03:36:10.797Z,15.39
2023-06-30T03:41:13.398Z,15.59
2023-06-30T03:46:16.975Z,15.83
2023-06-30T03:51:19.747Z,16.09
2023-06-30T03:56:22.431Z,16.25
2023-06-30T04:01:26.961Z,16.41
2023-06-30T04:06:29.615Z,16.66
2023-06-30T04:11:32.284Z,16.93
2023-06-30T04:16:34.906Z,17.19
2023-06-30T04:21:37.549Z,17.44
2023-06-30T04:26:41.200Z,17.73
2023-06-30T04:31:44.119Z,18.01
2023-06-30T04:36:46.881Z,18.26
2023-06-30T04:41:49.436Z,18.58
2023-06-30T04:46:51.959Z,18.99
2023-06-30T04:51:54.555Z,19.28
2023-06-30T04:56:57.775Z,19.66
2023-06-30T05:02:01.553Z,20.01
2023-06-30T05:07:04.620Z,20.28
2023-06-30T05:12:07.795Z,20.63
2023-06-30T05:17:10.601Z,20.94
2023-06-30T05:22:13.254Z,21.26
2023-06-30T05:27:15.870Z,21.66
2023-06-30T05:32:18.518Z,22.05
2023-06-30T05:37:21.218Z,22.48
2023-06-30T05:42:23.915Z,22.98
2023-06-30T05:47:26.483Z,23.32
2023-06-30T05:52:29.125Z,23.83
2023-06-30T05:57:31.732Z,24.25
2023-06-30T06:02:35.471Z,24.48
2023-06-30T06:07:38.484Z,24.56
2023-06-30T06:12:41.321Z,24.60
2023-06-30T06:17:43.983Z,24.87
2023-06-30T06:22:46.719Z,25.07
2023-06-30T06:27:49.335Z,25.15
2023-06-30T06:32:51.936Z,25.32
2023-06-30T06:37:54.648Z,25.69
2023-06-30T06:42:57.895Z,26.06
2023-06-30T06:48:27.133Z,26.27
2023-06-30T06:53:32.049Z,26.33
2023-06-30T06:58:39.427Z,26.41
2023-06-30T07:03:42.132Z,26.49
2023-06-30T07:08:44.865Z,26.86
2023-06-30T07:13:47.444Z,27.17
2023-06-30T07:18:50.158Z,27.18
2023-06-30T07:23:53.461Z,27.24
2023-06-30T07:28:56.037Z,27.33
2023-06-30T07:33:58.599Z,27.08
2023-06-30T07:39:01.198Z,26.69
2023-06-30T07:44:04.297Z,26.37
2023-06-30T07:49:06.933Z,26.34
2023-06-30T07:54:09.476Z,26.54
2023-06-30T07:59:12.224Z,26.73
2023-06-30T08:04:15.111Z,26.68
2023-06-30T08:09:17.882Z,26.82
2023-06-30T08:14:20.869Z,26.89
2023-06-30T08:19:45.298Z,27.20
2023-06-30T08:24:46.619Z,27.63
2023-06-30T08:29:49.817Z,27.95
2023-06-30T08:34:52.506Z,28.10
2023-06-30T08:39:55.108Z,28.22
2023-06-30T08:44:58.703Z,28.36
2023-06-30T08:50:02.705Z,28.49
2023-06-30T08:55:07.921Z,28.71
2023-06-30T09:00:11.480Z,28.84
2023-06-30T09:05:14.873Z,29.25
2023-06-30T09:10:17.971Z,29.86
2023-06-30T09:15:21.186Z,30.12
2023-06-30T09:20:23.892Z,30.24
2023-06-30T09:25:26.718Z,30.60
2023-06-30T09:30:44.042Z,30.56
2023-06-30T09:35:48.773Z,30.45
2023-06-30T09:40:52.113Z,30.43
2023-06-30T09:45:56.827Z,30.74
2023-06-30T09:51:00.315Z,31.17
2023-06-30T09:56:03.437Z,31.35
2023-06-30T10:01:06.114Z,31.44
2023-06-30T10:06:08.932Z,31.52
2023-06-30T10:11:11.622Z,31.39
2023-06-30T10:16:16.937Z,31.28
2023-06-30T10:21:19.835Z,31.23
2023-06-30T10:26:23.456Z,31.13
2023-06-30T10:31:26.992Z,31.05
2023-06-30T10:36:30.013Z,30.79
2023-06-30T10:41:45.971Z,30.53
2023-06-30T10:46:48.709Z,30.18
2023-06-30T10:51:52.952Z,29.95
2023-06-30T10:57:12.405Z,30.10
2023-06-30T11:02:18.112Z,30.44
2023-06-30T11:07:24.960Z,30.66
2023-06-30T11:12:48.903Z,30.50
2023-06-30T11:17:55.755Z,30.59
2023-06-30T11:23:01.924Z,30.83
2023-06-30T11:28:06.846Z,30.71
2023-06-30T11:33:09.608Z,30.33
2023-06-30T11:38:12.834Z,29.78
2023-06-30T11:43:15.553Z,29.36
2023-06-30T11:48:18.253Z,29.28
2023-06-30T11:53:20.886Z,29.23
2023-06-30T11:58:23.501Z,29.09
2023-06-30T12:03:28.287Z,28.87
2023-06-30T12:08:31.986Z,29.05
2023-06-30T12:13:34.886Z,29.43
2023-06-30T12:18:38.186Z,29.65
2023-06-30T12:23:43.212Z,29.63
2023-06-30T12:28:45.834Z,29.47
2023-06-30T12:33:54.688Z,29.49
2023-06-30T12:38:57.401Z,29.83
2023-06-30T12:44:02.377Z,30.24
2023-06-30T12:49:06.535Z,30.27
2023-06-30T12:54:09.132Z,30.00
2023-06-30T12:59:11.778Z,29.76
2023-06-30T13:04:14.424Z,29.65
2023-06-30T13:09:19.843Z,29.45
2023-06-30T13:14:22.466Z,29.16
2023-06-30T13:19:26.185Z,28.93
2023-06-30T13:24:28.833Z,28.78
2023-06-30T13:29:32.993Z,28.52
2023-06-30T13:34:35.644Z,28.30
2023-06-30T13:39:38.368Z,28.11
2023-06-30T13:44:41.044Z,28.11
2023-06-30T13:49:43.617Z,28.08
2023-06-30T13:54:46.213Z,28.05
2023-06-30T13:59:49.279Z,28.36
2023-06-30T14:04:51.971Z,28.97
2023-06-30T14:09:57.129Z,29.69
2023-06-30T14:14:59.799Z,30.34
2023-06-30T14:20:02.640Z,31.14
2023-06-30T14:25:05.690Z,32.34
2023-06-30T14:30:09.214Z,34.03
2023-06-30T14:35:12.619Z,35.64
2023-06-30T14:40:15.467Z,36.34
2023-06-30T14:45:18.807Z,35.64
2023-06-30T14:50:21.459Z,35.25
2023-06-30T14:55:24.045Z,35.95
2023-06-30T15:00:26.641Z,35.98
2023-06-30T15:05:33.135Z,35.97
2023-06-30T15:10:35.820Z,35.58
2023-06-30T15:15:38.441Z,34.89
2023-06-30T15:20:41.005Z,33.79
2023-06-30T15:25:43.872Z,33.19
2023-06-30T15:30:47.276Z,33.08
2023-06-30T15:35:50.164Z,33.17
2023-06-30T15:40:59.362Z,33.87
2023-06-30T15:46:02.542Z,33.60
2023-06-30T15:51:05.307Z,32.99
2023-06-30T15:56:07.905Z,32.07
2023-06-30T16:01:10.680Z,30.96
2023-06-30T16:06:13.266Z,29.97
2023-06-30T16:11:15.877Z,29.06
2023-06-30T16:16:18.684Z,28.07
2023-06-30T16:21:21.462Z,27.20
2023-06-30T16:26:24.103Z,26.40
2023-06-30T16:31:26.695Z,25.39
2023-06-30T16:36:29.294Z,23.54
2023-06-30T16:41:31.833Z,21.70
2023-06-30T16:46:34.443Z,20.50
2023-06-30T16:51:38.385Z,19.65
2023-06-30T16:56:40.954Z,19.16
2023-06-30T17:01:43.569Z,18.94
2023-06-30T17:06:46.140Z,18.88
2023-06-30T17:11:49.976Z,18.89
2023-06-30T17:16:52.714Z,18.93
2023-06-30T17:21:55.451Z,18.97
2023-06-30T17:26:58.131Z,19.02
2023-06-30T17:32:01.607Z,19.03
2023-06-30T17:37:08.217Z,19.00
2023-06-30T17:42:10.841Z,18.95
2023-06-30T17:47:13.377Z,18.90
2023-06-30T17:52:16.207Z,18.88
2023-06-30T17:57:18.948Z,18.87
2023-06-30T18:02:21.630Z,18.85
2023-06-30T18:07:24.537Z,18.84
2023-06-30T18:12:27.131Z,18.85
2023-06-30T18:17:29.734Z,18.85
2023-06-30T18:22:32.677Z,18.85
2023-06-30T18:27:35.585Z,18.89
2023-06-30T18:32:38.256Z,18.87
2023-06-30T18:37:41.869Z,18.87
2023-06-30T18:42:44.489Z,18.87
2023-06-30T18:47:47.592Z,18.85
2023-06-30T18:52:50.298Z,18.77
2023-06-30T18:57:52.920Z,18.71
2023-06-30T19:02:55.689Z,18.65
2023-06-30T19:07:58.433Z,18.61
2023-06-30T19:13:01.005Z,18.52
2023-06-30T19:18:03.676Z,18.45
2023-06-30T19:23:10.308Z,18.40
2023-06-30T19:28:13.848Z,18.39
2023-06-30T19:33:16.649Z,18.41
2023-06-30T19:38:19.212Z,18.44
2023-06-30T19:43:22.555Z,18.50
2023-06-30T19:48:25.192Z,18.52
2023-06-30T19:53:28.096Z,18.48
2023-06-30T19:58:30.840Z,18.49
2023-06-30T20:03:33.556Z,18.57
2023-06-30T20:08:36.217Z,18.66
2023-06-30T20:13:40.057Z,18.70
2023-06-30T20:18:42.689Z,18.75
2023-06-30T20:23:45.407Z,18.76
2023-06-30T20:28:47.989Z,18.80
2023-06-30T20:33:50.600Z,18.69
2023-06-30T20:38:53.238Z,18.64
2023-06-30T20:43:57.726Z,18.70
2023-06-30T20:49:00.324Z,18.71
2023-06-30T20:54:03.033Z,18.73
2023-06-30T20:59:05.654Z,18.71
2023-06-30T21:04:08.624Z,18.64
2023-06-30T21:09:11.344Z,18.57
2023-06-30T21:14:14.096Z,18.47
2023-06-30T21:19:16.961Z,18.40
2023-06-30T21:24:19.703Z,18.37
2023-06-30T21:29:22.298Z,18.32
2023-06-30T21:34:24.898Z,18.27
2023-06-30T21:39:27.528Z,18.22
2023-06-30T21:44:30.122Z,18.15
2023-06-30T21:49:32.697Z,18.09
2023-06-30T21:54:47.021Z,18.02
2023-06-30T21:59:50.889Z,17.95
2023-06-30T22:04:53.631Z,17.87
2023-06-30T22:09:56.265Z,17.68
2023-06-30T22:14:58.872Z,17.31
2023-06-30T22:20:01.504Z,17.02
2023-06-30T22:25:04.427Z,16.86
2023-06-30T22:30:07.514Z,16.78
2023-06-30T22:35:10.110Z,16.77
2023-06-30T22:40:13.455Z,16.75
2023-06-30T22:45:16.149Z,16.76
2023-06-30T22:50:18.827Z,16.75
2023-06-30T22:55:21.482Z,16.71
2023-06-30T23:00:24.161Z,16.65
2023-06-30T23:05:27.881Z,16.62
2023-06-30T23:10:30.677Z,16.59
2023-06-30T23:15:33.290Z,16.56
2023-06-30T23:20:35.848Z,16.50
2023-06-30T23:25:38.704Z,16.43
2023-06-30T23:30:43.719Z,16.33
2023-06-30T23:35:46.346Z,16.22
2023-06-30T23:40:49.118Z,16.13
2023-06-30T23:45:51.907Z,16.04
2023-06-30T23:50:54.561Z,15.97
2023-06-30T23:55:57.252Z,15.91
